sensor_id;sensor_type;location;lat;lon;timestamp;temperature;humidity
19680;DHT22;9989;48.962;9.182;2023-08-30T00:01:54;15.90;99.90
19680;DHT22;9989;48.962;9.182;2023-08-30T00:04:19;15.80;99.90
19680;DHT22;9989;48.962;9.182;2023-08-30T00:06:46;15.90;99.90
19680;DHT22;9989;48.962;9.182;2023-08-30T00:09:12;15.80;99.90
19680;DHT22;9989;48.962;9.182;2023-08-30T00:11:38;15.80;99.90
19680;DHT22;9989;48.962;9.182;2023-08-30T00:14:05;15.80;99.90
19680;DHT22;9989;48.962;9.182;2023-08-30T00:16:32;15.80;99.90
19680;DHT22;9989;48.962;9.182;2023-08-30T00:18:58;15.80;99.90
19680;DHT22;9989;48.962;9.182;2023-08-30T00:21:24;15.80;99.90
19680;DHT22;9989;48.962;9.182;2023-08-30T00:23:51;15.80;99.90
19680;DHT22;9989;48.962;9.182;2023-08-30T00:26:16;15.80;99.90
19680;DHT22;9989;48.962;9.182;2023-08-30T00:28:42;15.70;99.90
19680;DHT22;9989;48.962;9.182;2023-08-30T00:31:08;15.70;99.90
19680;DHT22;9989;48.962;9.182;2023-08-30T00:33:33;15.70;99.90
19680;DHT22;9989;48.962;9.182;2023-08-30T00:35:59;15.70;99.90
19680;DHT22;9989;48.962;9.182;2023-08-30T00:38:27;15.60;99.90
19680;DHT22;9989;48.962;9.182;2023-08-30T00:40:53;15.60;99.90
19680;DHT22;9989;48.962;9.182;2023-08-30T00:43:19;15.60;99.90
19680;DHT22;9989;48.962;9.182;2023-08-30T00:45:46;15.60;99.90
19680;DHT22;9989;48.962;9.182;2023-08-30T00:48:12;15.60;99.90
19680;DHT22;9989;48.962;9.182;2023-08-30T00:50:39;15.60;99.90
19680;DHT22;9989;48.962;9.182;2023-08-30T00:53:05;15.60;99.90
19680;DHT22;9989;48.962;9.182;2023-08-30T00:55:35;15.60;99.90
19680;DHT22;9989;48.962;9.182;2023-08-30T00:58:01;15.70;99.90
19680;DHT22;9989;48.962;9.182;2023-08-30T01:00:29;15.70;99.90
19680;DHT22;9989;48.962;9.182;2023-08-30T01:02:56;15.70;99.90
19680;DHT22;9989;48.962;9.182;2023-08-30T01:05:22;15.70;99.90
19680;DHT22;9989;48.962;9.182;2023-08-30T01:07:49;15.70;99.90
19680;DHT22;9989;48.962;9.182;2023-08-30T01:10:14;15.70;99.90
19680;DHT22;9989;48.962;9.182;2023-08-30T01:12:45;15.70;99.90
19680;DHT22;9989;48.962;9.182;2023-08-30T01:15:15;15.70;99.90
19680;DHT22;9989;48.962;9.182;2023-08-30T01:17:43;15.60;99.90
19680;DHT22;9989;48.962;9.182;2023-08-30T01:20:10;15.60;99.90
19680;DHT22;9989;48.962;9.182;2023-08-30T01:25:20;15.60;99.90
19680;DHT22;9989;48.962;9.182;2023-08-30T01:27:51;15.60;99.90
19680;DHT22;9989;48.962;9.182;2023-08-30T01:30:17;15.60;99.90
19680;DHT22;9989;48.962;9.182;2023-08-30T01:32:44;15.50;99.90
19680;DHT22;9989;48.962;9.182;2023-08-30T01:35:12;15.50;99.90
19680;DHT22;9989;48.962;9.182;2023-08-30T01:37:45;15.40;99.90
19680;DHT22;9989;48.962;9.182;2023-08-30T01:40:12;15.40;99.90
19680;DHT22;9989;48.962;9.182;2023-08-30T01:42:39;15.40;99.90
19680;DHT22;9989;48.962;9.182;2023-08-30T01:45:06;15.40;99.90
19680;DHT22;9989;48.962;9.182;2023-08-30T01:47:34;15.40;99.90
19680;DHT22;9989;48.962;9.182;2023-08-30T01:50:00;15.30;99.90
19680;DHT22;9989;48.962;9.182;2023-08-30T01:52:26;15.30;99.90
19680;DHT22;9989;48.962;9.182;2023-08-30T01:54:53;15.30;99.90
19680;DHT22;9989;48.962;9.182;2023-08-30T01:57:19;15.30;99.90
19680;DHT22;9989;48.962;9.182;2023-08-30T01:59:45;15.20;99.90
19680;DHT22;9989;48.962;9.182;2023-08-30T02:02:11;15.20;99.90
19680;DHT22;9989;48.962;9.182;2023-08-30T02:04:36;15.20;99.90
19680;DHT22;9989;48.962;9.182;2023-08-30T02:07:11;15.20;99.90
19680;DHT22;9989;48.962;9.182;2023-08-30T02:09:46;15.10;99.90
19680;DHT22;9989;48.962;9.182;2023-08-30T02:12:16;15.10;99.90
19680;DHT22;9989;48.962;9.182;2023-08-30T02:14:48;15.10;99.90
19680;DHT22;9989;48.962;9.182;2023-08-30T02:17:15;15.10;99.90
19680;DHT22;9989;48.962;9.182;2023-08-30T02:19:44;15.10;99.90
19680;DHT22;9989;48.962;9.182;2023-08-30T02:22:10;15.00;99.90
19680;DHT22;9989;48.962;9.182;2023-08-30T02:24:36;15.00;99.90
19680;DHT22;9989;48.962;9.182;2023-08-30T02:27:01;15.00;99.90
19680;DHT22;9989;48.962;9.182;2023-08-30T02:29:27;15.00;99.90
19680;DHT22;9989;48.962;9.182;2023-08-30T02:31:53;15.00;99.90
19680;DHT22;9989;48.962;9.182;2023-08-30T02:34:18;14.90;99.90
19680;DHT22;9989;48.962;9.182;2023-08-30T02:36:44;14.90;99.90
19680;DHT22;9989;48.962;9.182;2023-08-30T02:39:10;14.90;99.90
19680;DHT22;9989;48.962;9.182;2023-08-30T02:41:36;14.90;99.90
19680;DHT22;9989;48.962;9.182;2023-08-30T02:44:01;14.90;99.90
19680;DHT22;9989;48.962;9.182;2023-08-30T02:46:27;14.90;99.90
19680;DHT22;9989;48.962;9.182;2023-08-30T02:48:53;14.90;99.90
19680;DHT22;9989;48.962;9.182;2023-08-30T02:51:18;14.90;99.90
19680;DHT22;9989;48.962;9.182;2023-08-30T02:53:44;14.90;99.90
19680;DHT22;9989;48.962;9.182;2023-08-30T02:56:09;14.90;99.90
19680;DHT22;9989;48.962;9.182;2023-08-30T02:58:36;14.90;99.90
19680;DHT22;9989;48.962;9.182;2023-08-30T03:01:02;14.90;99.90
19680;DHT22;9989;48.962;9.182;2023-08-30T03:03:28;14.90;99.90
19680;DHT22;9989;48.962;9.182;2023-08-30T03:05:54;14.90;99.90
19680;DHT22;9989;48.962;9.182;2023-08-30T03:08:19;14.90;99.90
19680;DHT22;9989;48.962;9.182;2023-08-30T03:10:45;14.90;99.90
19680;DHT22;9989;48.962;9.182;2023-08-30T03:13:10;14.90;99.90
19680;DHT22;9989;48.962;9.182;2023-08-30T03:15:36;14.90;99.90
19680;DHT22;9989;48.962;9.182;2023-08-30T03:18:02;14.90;99.90
19680;DHT22;9989;48.962;9.182;2023-08-30T03:20:27;15.00;99.90
19680;DHT22;9989;48.962;9.182;2023-08-30T03:22:56;14.90;99.90
19680;DHT22;9989;48.962;9.182;2023-08-30T03:25:23;14.90;99.90
19680;DHT22;9989;48.962;9.182;2023-08-30T03:27:49;14.90;99.90
19680;DHT22;9989;48.962;9.182;2023-08-30T03:30:14;15.00;99.90
19680;DHT22;9989;48.962;9.182;2023-08-30T03:32:40;14.90;99.90
19680;DHT22;9989;48.962;9.182;2023-08-30T03:35:06;15.00;99.90
19680;DHT22;9989;48.962;9.182;2023-08-30T03:37:32;15.00;99.90
19680;DHT22;9989;48.962;9.182;2023-08-30T03:39:57;15.00;99.90
19680;DHT22;9989;48.962;9.182;2023-08-30T03:42:23;15.00;99.90
19680;DHT22;9989;48.962;9.182;2023-08-30T03:44:48;15.00;99.90
19680;DHT22;9989;48.962;9.182;2023-08-30T03:47:14;15.00;99.90
19680;DHT22;9989;48.962;9.182;2023-08-30T03:49:39;15.00;99.90
19680;DHT22;9989;48.962;9.182;2023-08-30T03:52:05;15.00;99.90
19680;DHT22;9989;48.962;9.182;2023-08-30T03:54:31;15.10;99.90
19680;DHT22;9989;48.962;9.182;2023-08-30T03:56:57;15.00;99.90
19680;DHT22;9989;48.962;9.182;2023-08-30T03:59:23;15.00;99.90
19680;DHT22;9989;48.962;9.182;2023-08-30T04:01:50;15.00;99.90
19680;DHT22;9989;48.962;9.182;2023-08-30T04:04:16;15.00;99.90
19680;DHT22;9989;48.962;9.182;2023-08-30T04:06:41;15.00;99.90
19680;DHT22;9989;48.962;9.182;2023-08-30T04:09:07;15.00;99.90
19680;DHT22;9989;48.962;9.182;2023-08-30T04:11:33;15.00;99.90
19680;DHT22;9989;48.962;9.182;2023-08-30T04:13:59;15.00;99.90
19680;DHT22;9989;48.962;9.182;2023-08-30T04:16:24;15.00;99.90
19680;DHT22;9989;48.962;9.182;2023-08-30T04:18:50;15.00;99.90
19680;DHT22;9989;48.962;9.182;2023-08-30T04:21:15;15.00;99.90
19680;DHT22;9989;48.962;9.182;2023-08-30T04:23:41;15.00;99.90
19680;DHT22;9989;48.962;9.182;2023-08-30T04:26:06;15.00;99.90
19680;DHT22;9989;48.962;9.182;2023-08-30T04:28:32;15.00;99.90
19680;DHT22;9989;48.962;9.182;2023-08-30T04:30:57;15.00;99.90
19680;DHT22;9989;48.962;9.182;2023-08-30T04:33:23;14.90;99.90
19680;DHT22;9989;48.962;9.182;2023-08-30T04:35:52;14.90;99.90
19680;DHT22;9989;48.962;9.182;2023-08-30T04:38:19;14.90;99.90
19680;DHT22;9989;48.962;9.182;2023-08-30T04:40:45;14.90;99.90
19680;DHT22;9989;48.962;9.182;2023-08-30T04:43:11;14.90;99.90
19680;DHT22;9989;48.962;9.182;2023-08-30T04:45:37;14.90;99.90
19680;DHT22;9989;48.962;9.182;2023-08-30T04:48:03;14.90;99.90
19680;DHT22;9989;48.962;9.182;2023-08-30T04:50:29;14.90;99.90
19680;DHT22;9989;48.962;9.182;2023-08-30T04:52:56;14.90;99.90
19680;DHT22;9989;48.962;9.182;2023-08-30T04:55:24;14.90;99.90
19680;DHT22;9989;48.962;9.182;2023-08-30T04:57:50;14.90;99.90
19680;DHT22;9989;48.962;9.182;2023-08-30T05:00:17;14.90;99.90
19680;DHT22;9989;48.962;9.182;2023-08-30T05:02:43;14.90;99.90
19680;DHT22;9989;48.962;9.182;2023-08-30T05:05:09;14.90;99.90
19680;DHT22;9989;48.962;9.182;2023-08-30T05:07:35;14.90;99.90
19680;DHT22;9989;48.962;9.182;2023-08-30T05:10:01;14.90;99.90
19680;DHT22;9989;48.962;9.182;2023-08-30T05:12:26;14.90;99.90
19680;DHT22;9989;48.962;9.182;2023-08-30T05:14:52;14.90;99.90
19680;DHT22;9989;48.962;9.182;2023-08-30T05:17:17;15.00;99.90
19680;DHT22;9989;48.962;9.182;2023-08-30T05:19:43;15.00;99.90
19680;DHT22;9989;48.962;9.182;2023-08-30T05:22:09;15.00;99.90
19680;DHT22;9989;48.962;9.182;2023-08-30T05:24:34;15.00;99.90
19680;DHT22;9989;48.962;9.182;2023-08-30T05:27:00;15.00;99.90
19680;DHT22;9989;48.962;9.182;2023-08-30T05:29:25;15.00;99.90
19680;DHT22;9989;48.962;9.182;2023-08-30T05:31:51;15.00;99.90
19680;DHT22;9989;48.962;9.182;2023-08-30T05:34:17;15.10;99.90
19680;DHT22;9989;48.962;9.182;2023-08-30T05:36:42;15.10;99.90
19680;DHT22;9989;48.962;9.182;2023-08-30T05:39:08;15.10;99.90
19680;DHT22;9989;48.962;9.182;2023-08-30T05:41:33;15.10;99.90
19680;DHT22;9989;48.962;9.182;2023-08-30T05:43:59;15.20;99.90
19680;DHT22;9989;48.962;9.182;2023-08-30T05:46:25;15.20;99.90
19680;DHT22;9989;48.962;9.182;2023-08-30T05:48:50;15.30;99.90
19680;DHT22;9989;48.962;9.182;2023-08-30T05:51:16;15.30;99.90
19680;DHT22;9989;48.962;9.182;2023-08-30T05:53:41;15.30;99.90
19680;DHT22;9989;48.962;9.182;2023-08-30T05:56:07;15.40;99.90
19680;DHT22;9989;48.962;9.182;2023-08-30T05:58:32;15.40;99.90
19680;DHT22;9989;48.962;9.182;2023-08-30T06:00:58;15.40;99.90
19680;DHT22;9989;48.962;9.182;2023-08-30T06:03:25;15.50;99.90
19680;DHT22;9989;48.962;9.182;2023-08-30T06:05:51;15.50;99.90
19680;DHT22;9989;48.962;9.182;2023-08-30T06:08:16;15.50;99.90
19680;DHT22;9989;48.962;9.182;2023-08-30T06:10:43;15.60;99.90
19680;DHT22;9989;48.962;9.182;2023-08-30T06:13:09;15.60;99.90
19680;DHT22;9989;48.962;9.182;2023-08-30T06:15:35;15.70;99.90
19680;DHT22;9989;48.962;9.182;2023-08-30T06:18:03;15.70;99.90
19680;DHT22;9989;48.962;9.182;2023-08-30T06:20:28;15.80;99.90
19680;DHT22;9989;48.962;9.182;2023-08-30T06:22:54;15.80;99.90
19680;DHT22;9989;48.962;9.182;2023-08-30T06:25:19;15.80;99.90
19680;DHT22;9989;48.962;9.182;2023-08-30T06:27:56;15.90;99.90
19680;DHT22;9989;48.962;9.182;2023-08-30T06:30:23;15.90;99.90
19680;DHT22;9989;48.962;9.182;2023-08-30T06:32:48;15.90;99.90
19680;DHT22;9989;48.962;9.182;2023-08-30T06:35:14;16.00;99.90
19680;DHT22;9989;48.962;9.182;2023-08-30T06:37:40;16.00;99.90
19680;DHT22;9989;48.962;9.182;2023-08-30T06:40:06;16.00;99.90
19680;DHT22;9989;48.962;9.182;2023-08-30T06:42:32;16.10;99.90
19680;DHT22;9989;48.962;9.182;2023-08-30T06:44:58;16.10;99.90
19680;DHT22;9989;48.962;9.182;2023-08-30T06:47:23;16.20;99.90
19680;DHT22;9989;48.962;9.182;2023-08-30T06:49:49;16.20;99.90
19680;DHT22;9989;48.962;9.182;2023-08-30T06:52:14;16.30;99.90
19680;DHT22;9989;48.962;9.182;2023-08-30T06:54:40;16.30;99.90
19680;DHT22;9989;48.962;9.182;2023-08-30T06:57:05;16.40;99.90
19680;DHT22;9989;48.962;9.182;2023-08-30T06:59:32;16.50;99.90
19680;DHT22;9989;48.962;9.182;2023-08-30T07:01:58;16.50;99.90
19680;DHT22;9989;48.962;9.182;2023-08-30T07:04:23;16.60;99.90
19680;DHT22;9989;48.962;9.182;2023-08-30T07:06:49;16.60;99.90
19680;DHT22;9989;48.962;9.182;2023-08-30T07:09:15;16.60;99.90
19680;DHT22;9989;48.962;9.182;2023-08-30T07:11:42;16.60;99.90
19680;DHT22;9989;48.962;9.182;2023-08-30T07:14:10;16.60;99.90
19680;DHT22;9989;48.962;9.182;2023-08-30T07:16:35;16.60;99.90
19680;DHT22;9989;48.962;9.182;2023-08-30T07:19:01;16.60;99.90
19680;DHT22;9989;48.962;9.182;2023-08-30T07:21:27;16.70;99.90
19680;DHT22;9989;48.962;9.182;2023-08-30T07:23:53;16.80;99.90
19680;DHT22;9989;48.962;9.182;2023-08-30T07:26:18;16.80;99.90
19680;DHT22;9989;48.962;9.182;2023-08-30T07:28:45;16.90;99.90
19680;DHT22;9989;48.962;9.182;2023-08-30T07:31:11;16.90;99.90
19680;DHT22;9989;48.962;9.182;2023-08-30T07:33:40;17.00;99.90
19680;DHT22;9989;48.962;9.182;2023-08-30T07:36:06;17.00;99.90
19680;DHT22;9989;48.962;9.182;2023-08-30T07:38:32;17.10;99.90
19680;DHT22;9989;48.962;9.182;2023-08-30T07:40:57;17.10;99.90
19680;DHT22;9989;48.962;9.182;2023-08-30T07:43:23;17.10;99.90
19680;DHT22;9989;48.962;9.182;2023-08-30T07:45:49;17.10;99.90
19680;DHT22;9989;48.962;9.182;2023-08-30T07:48:14;17.10;99.90
19680;DHT22;9989;48.962;9.182;2023-08-30T07:50:40;17.10;99.90
19680;DHT22;9989;48.962;9.182;2023-08-30T07:53:05;17.10;99.90
19680;DHT22;9989;48.962;9.182;2023-08-30T07:55:31;17.10;99.90
19680;DHT22;9989;48.962;9.182;2023-08-30T07:57:56;17.10;99.90
19680;DHT22;9989;48.962;9.182;2023-08-30T08:00:22;17.20;99.90
19680;DHT22;9989;48.962;9.182;2023-08-30T08:02:47;17.20;99.90
19680;DHT22;9989;48.962;9.182;2023-08-30T08:05:13;17.20;99.90
19680;DHT22;9989;48.962;9.182;2023-08-30T08:07:39;17.20;99.90
19680;DHT22;9989;48.962;9.182;2023-08-30T08:10:08;17.30;99.90
19680;DHT22;9989;48.962;9.182;2023-08-30T08:12:33;17.30;99.90
19680;DHT22;9989;48.962;9.182;2023-08-30T08:14:59;17.30;99.90
19680;DHT22;9989;48.962;9.182;2023-08-30T08:17:25;17.40;99.90
19680;DHT22;9989;48.962;9.182;2023-08-30T08:19:50;17.40;99.90
19680;DHT22;9989;48.962;9.182;2023-08-30T08:22:16;17.40;99.90
19680;DHT22;9989;48.962;9.182;2023-08-30T08:24:41;17.50;99.90
19680;DHT22;9989;48.962;9.182;2023-08-30T08:27:09;17.60;99.90
19680;DHT22;9989;48.962;9.182;2023-08-30T08:29:34;17.60;99.90
19680;DHT22;9989;48.962;9.182;2023-08-30T08:32:00;17.70;99.90
19680;DHT22;9989;48.962;9.182;2023-08-30T08:34:26;17.80;99.90
19680;DHT22;9989;48.962;9.182;2023-08-30T08:36:51;17.90;99.90
19680;DHT22;9989;48.962;9.182;2023-08-30T08:39:17;18.00;99.90
19680;DHT22;9989;48.962;9.182;2023-08-30T08:41:44;18.10;99.90
19680;DHT22;9989;48.962;9.182;2023-08-30T08:44:11;18.20;99.90
19680;DHT22;9989;48.962;9.182;2023-08-30T08:46:38;18.30;99.90
19680;DHT22;9989;48.962;9.182;2023-08-30T08:49:16;18.50;99.90
19680;DHT22;9989;48.962;9.182;2023-08-30T08:51:43;18.50;99.90
19680;DHT22;9989;48.962;9.182;2023-08-30T08:54:10;18.60;99.90
19680;DHT22;9989;48.962;9.182;2023-08-30T08:56:37;18.80;99.90
19680;DHT22;9989;48.962;9.182;2023-08-30T08:59:03;19.00;99.90
19680;DHT22;9989;48.962;9.182;2023-08-30T09:01:31;19.30;99.90
19680;DHT22;9989;48.962;9.182;2023-08-30T09:03:59;19.50;99.90
19680;DHT22;9989;48.962;9.182;2023-08-30T09:06:25;19.70;99.90
19680;DHT22;9989;48.962;9.182;2023-08-30T09:08:51;20.00;99.90
19680;DHT22;9989;48.962;9.182;2023-08-30T09:11:16;20.20;99.90
19680;DHT22;9989;48.962;9.182;2023-08-30T09:13:43;20.40;99.90
19680;DHT22;9989;48.962;9.182;2023-08-30T09:16:15;20.50;99.90
19680;DHT22;9989;48.962;9.182;2023-08-30T09:18:42;20.50;99.90
19680;DHT22;9989;48.962;9.182;2023-08-30T09:21:08;20.60;99.90
19680;DHT22;9989;48.962;9.182;2023-08-30T09:23:34;20.70;99.90
19680;DHT22;9989;48.962;9.182;2023-08-30T09:26:01;20.90;99.90
19680;DHT22;9989;48.962;9.182;2023-08-30T09:28:27;21.10;99.90
19680;DHT22;9989;48.962;9.182;2023-08-30T09:30:53;21.30;99.90
19680;DHT22;9989;48.962;9.182;2023-08-30T09:33:22;21.60;99.90
19680;DHT22;9989;48.962;9.182;2023-08-30T09:35:48;21.90;99.90
19680;DHT22;9989;48.962;9.182;2023-08-30T09:38:20;22.10;99.90
19680;DHT22;9989;48.962;9.182;2023-08-30T09:40:46;22.30;99.90
19680;DHT22;9989;48.962;9.182;2023-08-30T09:43:12;22.50;99.90
19680;DHT22;9989;48.962;9.182;2023-08-30T09:45:39;22.60;99.90
19680;DHT22;9989;48.962;9.182;2023-08-30T09:48:07;22.80;99.90
19680;DHT22;9989;48.962;9.182;2023-08-30T09:50:35;23.00;99.90
19680;DHT22;9989;48.962;9.182;2023-08-30T09:53:08;23.20;99.90
19680;DHT22;9989;48.962;9.182;2023-08-30T09:55:35;23.30;99.90
19680;DHT22;9989;48.962;9.182;2023-08-30T09:58:04;23.40;99.90
19680;DHT22;9989;48.962;9.182;2023-08-30T10:00:31;23.50;99.90
19680;DHT22;9989;48.962;9.182;2023-08-30T10:02:58;23.60;99.90
19680;DHT22;9989;48.962;9.182;2023-08-30T10:05:24;23.50;99.90
19680;DHT22;9989;48.962;9.182;2023-08-30T10:07:54;23.50;99.90
19680;DHT22;9989;48.962;9.182;2023-08-30T10:10:22;23.60;99.90
19680;DHT22;9989;48.962;9.182;2023-08-30T10:12:49;23.70;99.90
19680;DHT22;9989;48.962;9.182;2023-08-30T10:15:15;23.70;99.90
19680;DHT22;9989;48.962;9.182;2023-08-30T10:17:44;23.70;99.90
19680;DHT22;9989;48.962;9.182;2023-08-30T10:20:10;23.70;99.90
19680;DHT22;9989;48.962;9.182;2023-08-30T10:22:39;23.70;99.90
19680;DHT22;9989;48.962;9.182;2023-08-30T10:25:23;23.70;99.90
19680;DHT22;9989;48.962;9.182;2023-08-30T10:27:50;23.60;99.90
19680;DHT22;9989;48.962;9.182;2023-08-30T10:30:18;23.70;99.90
19680;DHT22;9989;48.962;9.182;2023-08-30T10:32:45;23.80;99.90
19680;DHT22;9989;48.962;9.182;2023-08-30T10:35:12;24.00;99.90
19680;DHT22;9989;48.962;9.182;2023-08-30T10:37:41;24.10;99.90
19680;DHT22;9989;48.962;9.182;2023-08-30T10:40:08;24.20;99.90
19680;DHT22;9989;48.962;9.182;2023-08-30T10:42:34;24.30;99.90
19680;DHT22;9989;48.962;9.182;2023-08-30T10:45:02;24.50;99.90
19680;DHT22;9989;48.962;9.182;2023-08-30T10:47:32;24.70;99.90
19680;DHT22;9989;48.962;9.182;2023-08-30T10:50:04;24.90;99.90
19680;DHT22;9989;48.962;9.182;2023-08-30T10:52:31;25.00;99.90
19680;DHT22;9989;48.962;9.182;2023-08-30T10:55:14;25.00;99.90
19680;DHT22;9989;48.962;9.182;2023-08-30T10:57:44;25.10;99.90
19680;DHT22;9989;48.962;9.182;2023-08-30T11:00:22;25.20;99.90
19680;DHT22;9989;48.962;9.182;2023-08-30T11:02:49;25.10;99.90
19680;DHT22;9989;48.962;9.182;2023-08-30T11:05:16;25.10;99.90
19680;DHT22;9989;48.962;9.182;2023-08-30T11:07:45;25.00;99.90
19680;DHT22;9989;48.962;9.182;2023-08-30T11:10:12;24.80;99.90
19680;DHT22;9989;48.962;9.182;2023-08-30T11:12:40;24.60;99.90
19680;DHT22;9989;48.962;9.182;2023-08-30T11:15:07;24.40;99.90
19680;DHT22;9989;48.962;9.182;2023-08-30T11:17:33;24.10;99.90
19680;DHT22;9989;48.962;9.182;2023-08-30T11:20:13;23.90;99.90
19680;DHT22;9989;48.962;9.182;2023-08-30T11:22:42;23.60;99.90
19680;DHT22;9989;48.962;9.182;2023-08-30T11:25:08;23.40;99.90
19680;DHT22;9989;48.962;9.182;2023-08-30T11:27:34;23.20;99.90
19680;DHT22;9989;48.962;9.182;2023-08-30T11:30:01;23.00;99.90
19680;DHT22;9989;48.962;9.182;2023-08-30T11:32:41;22.70;99.90
19680;DHT22;9989;48.962;9.182;2023-08-30T11:35:09;22.50;99.90
19680;DHT22;9989;48.962;9.182;2023-08-30T11:37:35;22.30;99.90
19680;DHT22;9989;48.962;9.182;2023-08-30T11:40:02;22.20;99.90
19680;DHT22;9989;48.962;9.182;2023-08-30T11:42:30;22.00;99.90
19680;DHT22;9989;48.962;9.182;2023-08-30T11:44:58;21.90;99.90
19680;DHT22;9989;48.962;9.182;2023-08-30T11:47:24;21.80;99.90
19680;DHT22;9989;48.962;9.182;2023-08-30T11:49:56;21.60;99.90
19680;DHT22;9989;48.962;9.182;2023-08-30T11:52:22;21.50;99.90
19680;DHT22;9989;48.962;9.182;2023-08-30T11:54:49;21.30;99.90
19680;DHT22;9989;48.962;9.182;2023-08-30T11:57:15;21.20;99.90
19680;DHT22;9989;48.962;9.182;2023-08-30T11:59:41;21.10;99.90
19680;DHT22;9989;48.962;9.182;2023-08-30T12:02:07;21.00;99.90
19680;DHT22;9989;48.962;9.182;2023-08-30T12:04:39;20.80;99.90
19680;DHT22;9989;48.962;9.182;2023-08-30T12:07:05;20.80;99.90
19680;DHT22;9989;48.962;9.182;2023-08-30T12:09:31;20.70;99.90
19680;DHT22;9989;48.962;9.182;2023-08-30T12:12:11;20.60;99.90
19680;DHT22;9989;48.962;9.182;2023-08-30T12:14:37;20.60;99.90
19680;DHT22;9989;48.962;9.182;2023-08-30T12:17:03;20.50;99.90
19680;DHT22;9989;48.962;9.182;2023-08-30T12:19:29;20.50;99.90
19680;DHT22;9989;48.962;9.182;2023-08-30T12:21:56;20.40;99.90
19680;DHT22;9989;48.962;9.182;2023-08-30T12:24:21;20.30;99.90
19680;DHT22;9989;48.962;9.182;2023-08-30T12:26:48;20.30;99.90
19680;DHT22;9989;48.962;9.182;2023-08-30T12:29:14;20.30;99.90
19680;DHT22;9989;48.962;9.182;2023-08-30T12:31:39;20.40;99.90
19680;DHT22;9989;48.962;9.182;2023-08-30T12:34:05;20.40;99.90
19680;DHT22;9989;48.962;9.182;2023-08-30T12:36:30;20.50;99.90
19680;DHT22;9989;48.962;9.182;2023-08-30T12:38:57;20.60;99.90
19680;DHT22;9989;48.962;9.182;2023-08-30T12:41:22;20.80;99.90
19680;DHT22;9989;48.962;9.182;2023-08-30T12:43:49;21.00;99.90
19680;DHT22;9989;48.962;9.182;2023-08-30T12:46:15;21.30;99.90
19680;DHT22;9989;48.962;9.182;2023-08-30T12:48:41;21.50;99.90
19680;DHT22;9989;48.962;9.182;2023-08-30T12:51:06;21.70;99.90
19680;DHT22;9989;48.962;9.182;2023-08-30T12:53:32;21.80;99.90
19680;DHT22;9989;48.962;9.182;2023-08-30T12:55:58;21.90;99.90
19680;DHT22;9989;48.962;9.182;2023-08-30T12:58:23;22.00;99.90
19680;DHT22;9989;48.962;9.182;2023-08-30T13:00:49;22.10;99.90
19680;DHT22;9989;48.962;9.182;2023-08-30T13:03:15;22.30;99.90
19680;DHT22;9989;48.962;9.182;2023-08-30T13:05:41;22.50;99.90
19680;DHT22;9989;48.962;9.182;2023-08-30T13:08:06;22.90;99.90
19680;DHT22;9989;48.962;9.182;2023-08-30T13:10:32;23.20;99.90
19680;DHT22;9989;48.962;9.182;2023-08-30T13:12:58;23.60;99.90
19680;DHT22;9989;48.962;9.182;2023-08-30T13:15:24;23.90;99.90
19680;DHT22;9989;48.962;9.182;2023-08-30T13:17:49;24.10;99.90
19680;DHT22;9989;48.962;9.182;2023-08-30T13:20:15;24.30;99.90
19680;DHT22;9989;48.962;9.182;2023-08-30T13:22:41;24.50;99.90
19680;DHT22;9989;48.962;9.182;2023-08-30T13:25:07;24.90;99.90
19680;DHT22;9989;48.962;9.182;2023-08-30T13:27:33;25.20;99.90
19680;DHT22;9989;48.962;9.182;2023-08-30T13:29:58;25.50;99.90
19680;DHT22;9989;48.962;9.182;2023-08-30T13:32:24;25.60;99.00
19680;DHT22;9989;48.962;9.182;2023-08-30T13:34:50;25.80;99.30
19680;DHT22;9989;48.962;9.182;2023-08-30T13:37:16;25.70;99.10
19680;DHT22;9989;48.962;9.182;2023-08-30T13:39:43;25.80;98.50
19680;DHT22;9989;48.962;9.182;2023-08-30T13:42:08;25.80;97.70
19680;DHT22;9989;48.962;9.182;2023-08-30T13:44:34;25.80;97.10
19680;DHT22;9989;48.962;9.182;2023-08-30T13:47:05;25.90;96.70
19680;DHT22;9989;48.962;9.182;2023-08-30T13:49:31;25.90;97.00
19680;DHT22;9989;48.962;9.182;2023-08-30T13:51:57;26.00;96.70
19680;DHT22;9989;48.962;9.182;2023-08-30T13:54:23;26.30;96.70
19680;DHT22;9989;48.962;9.182;2023-08-30T13:56:49;26.30;95.70
19680;DHT22;9989;48.962;9.182;2023-08-30T13:59:15;26.40;96.30
19680;DHT22;9989;48.962;9.182;2023-08-30T14:01:41;26.50;96.10
19680;DHT22;9989;48.962;9.182;2023-08-30T14:04:07;26.40;95.70
19680;DHT22;9989;48.962;9.182;2023-08-30T14:06:33;26.50;96.50
19680;DHT22;9989;48.962;9.182;2023-08-30T14:08:58;26.60;95.70
19680;DHT22;9989;48.962;9.182;2023-08-30T14:11:24;26.60;94.60
19680;DHT22;9989;48.962;9.182;2023-08-30T14:13:50;26.30;95.10
19680;DHT22;9989;48.962;9.182;2023-08-30T14:16:15;26.20;96.20
19680;DHT22;9989;48.962;9.182;2023-08-30T14:18:43;26.00;96.50
19680;DHT22;9989;48.962;9.182;2023-08-30T14:21:08;25.80;96.60
19680;DHT22;9989;48.962;9.182;2023-08-30T14:23:34;25.40;96.80
19680;DHT22;9989;48.962;9.182;2023-08-30T14:26:03;25.10;97.00
19680;DHT22;9989;48.962;9.182;2023-08-30T14:28:39;24.60;97.30
19680;DHT22;9989;48.962;9.182;2023-08-30T14:31:09;24.20;98.30
19680;DHT22;9989;48.962;9.182;2023-08-30T14:33:34;23.90;99.30
19680;DHT22;9989;48.962;9.182;2023-08-30T14:36:00;23.60;99.50
19680;DHT22;9989;48.962;9.182;2023-08-30T14:38:29;23.40;99.90
19680;DHT22;9989;48.962;9.182;2023-08-30T14:41:01;23.20;99.90
19680;DHT22;9989;48.962;9.182;2023-08-30T14:43:28;23.10;99.90
19680;DHT22;9989;48.962;9.182;2023-08-30T14:46:04;23.10;99.90
19680;DHT22;9989;48.962;9.182;2023-08-30T14:48:31;23.30;99.90
19680;DHT22;9989;48.962;9.182;2023-08-30T14:50:58;23.40;99.90
19680;DHT22;9989;48.962;9.182;2023-08-30T14:53:23;23.60;99.90
19680;DHT22;9989;48.962;9.182;2023-08-30T14:55:49;23.80;99.90
19680;DHT22;9989;48.962;9.182;2023-08-30T14:58:14;23.80;99.90
19680;DHT22;9989;48.962;9.182;2023-08-30T15:00:40;23.80;99.90
19680;DHT22;9989;48.962;9.182;2023-08-30T15:03:06;23.70;99.90
19680;DHT22;9989;48.962;9.182;2023-08-30T15:05:31;23.50;99.90
19680;DHT22;9989;48.962;9.182;2023-08-30T15:07:57;23.50;99.90
19680;DHT22;9989;48.962;9.182;2023-08-30T15:10:23;23.40;99.90
19680;DHT22;9989;48.962;9.182;2023-08-30T15:12:48;23.40;99.90
19680;DHT22;9989;48.962;9.182;2023-08-30T15:15:14;23.30;99.90
19680;DHT22;9989;48.962;9.182;2023-08-30T15:17:40;23.10;99.90
19680;DHT22;9989;48.962;9.182;2023-08-30T15:20:07;23.00;99.90
19680;DHT22;9989;48.962;9.182;2023-08-30T15:22:33;22.80;99.90
19680;DHT22;9989;48.962;9.182;2023-08-30T15:24:59;22.80;99.90
19680;DHT22;9989;48.962;9.182;2023-08-30T15:27:27;22.70;99.90
19680;DHT22;9989;48.962;9.182;2023-08-30T15:29:52;22.80;99.90
19680;DHT22;9989;48.962;9.182;2023-08-30T15:32:21;22.90;99.90
19680;DHT22;9989;48.962;9.182;2023-08-30T15:34:47;23.10;99.90
19680;DHT22;9989;48.962;9.182;2023-08-30T15:37:12;23.30;99.90
19680;DHT22;9989;48.962;9.182;2023-08-30T15:39:39;23.40;99.90
19680;DHT22;9989;48.962;9.182;2023-08-30T15:42:05;23.40;99.90
19680;DHT22;9989;48.962;9.182;2023-08-30T15:44:30;23.40;99.90